createdAt,value
2022-10-04T00:00:41.395Z,4.90
2022-10-04T00:03:51.338Z,4.70
2022-10-04T00:06:25.890Z,4.90
2022-10-04T00:09:04.504Z,4.80
2022-10-04T00:11:37.755Z,5.70
2022-10-04T00:14:10.151Z,5.10
2022-10-04T00:16:41.430Z,5.00
2022-10-04T00:19:14.947Z,5.40
2022-10-04T00:21:52.427Z,4.60
2022-10-04T00:24:34.479Z,5.10
2022-10-04T00:27:25.887Z,5.20
2022-10-04T00:30:02.466Z,5.20
2022-10-04T00:32:40.551Z,4.60
2022-10-04T00:35:28.507Z,5.50
2022-10-04T00:37:58.107Z,5.50
2022-10-04T00:40:33.701Z,5.10
2022-10-04T00:45:40.850Z,4.60
2022-10-04T00:48:08.415Z,5.20
2022-10-04T00:50:44.163Z,5.30
2022-10-04T00:53:40.492Z,5.60
2022-10-04T00:56:30.991Z,6.00
2022-10-04T00:59:13.667Z,5.60
2022-10-04T01:01:44.688Z,5.40
2022-10-04T01:04:29.534Z,6.00
2022-10-04T01:07:01.420Z,5.60
2022-10-04T01:09:34.862Z,5.70
2022-10-04T01:12:10.927Z,5.20
2022-10-04T01:15:20.995Z,5.80
2022-10-04T01:18:09.332Z,5.60
2022-10-04T01:20:41.178Z,4.90
2022-10-04T01:23:10.308Z,5.20
2022-10-04T01:25:52.170Z,4.90
2022-10-04T01:28:19.996Z,4.80
2022-10-04T01:30:48.295Z,4.80
2022-10-04T01:33:16.010Z,4.50
2022-10-04T01:35:44.959Z,4.50
2022-10-04T01:38:12.940Z,4.20
2022-10-04T01:40:51.647Z,3.90
2022-10-04T01:43:27.879Z,3.80
2022-10-04T01:46:02.520Z,3.80
2022-10-04T01:48:36.535Z,3.00
2022-10-04T01:51:26.936Z,3.70
2022-10-04T01:54:02.791Z,3.10
2022-10-04T01:56:38.070Z,3.40
2022-10-04T01:59:14.595Z,2.90
2022-10-04T02:01:57.710Z,3.50
2022-10-04T02:04:33.233Z,3.30
2022-10-04T02:09:34.468Z,3.30
2022-10-04T02:12:02.720Z,2.90
2022-10-04T02:14:34.205Z,2.40
2022-10-04T02:17:05.700Z,2.50
2022-10-04T02:19:36.895Z,2.70
2022-10-04T02:22:07.479Z,2.10
2022-10-04T02:24:38.764Z,2.20
2022-10-04T02:27:06.676Z,2.60
2022-10-04T02:29:34.524Z,2.80
2022-10-04T02:32:24.127Z,2.30
2022-10-04T02:34:54.960Z,2.30
2022-10-04T02:37:24.963Z,2.30
2022-10-04T02:40:22.424Z,2.40
2022-10-04T02:43:24.302Z,2.30
2022-10-04T02:45:55.791Z,2.50
2022-10-04T02:48:49.949Z,2.40
2022-10-04T02:51:32.237Z,2.90
2022-10-04T02:54:03.867Z,3.20
2022-10-04T02:56:33.419Z,2.40
2022-10-04T02:59:05.728Z,3.00
2022-10-04T03:01:41.626Z,2.70
2022-10-04T03:04:15.224Z,3.10
2022-10-04T03:06:46.052Z,2.90
2022-10-04T03:09:15.217Z,3.10
2022-10-04T03:11:44.131Z,3.40
2022-10-04T03:14:26.032Z,3.30
2022-10-04T03:16:57.409Z,3.30
2022-10-04T03:19:27.614Z,3.80
2022-10-04T03:22:07.665Z,3.80
2022-10-04T03:24:49.205Z,3.90
2022-10-04T03:27:23.156Z,3.90
2022-10-04T03:29:52.731Z,4.20
2022-10-04T03:32:23.692Z,4.70
2022-10-04T03:35:01.280Z,4.70
2022-10-04T03:37:32.249Z,4.70
2022-10-04T03:40:02.259Z,4.20
2022-10-04T03:42:34.626Z,5.50
2022-10-04T03:45:08.005Z,5.60
2022-10-04T03:47:40.577Z,5.40
2022-10-04T03:50:24.713Z,5.00
2022-10-04T03:52:59.027Z,5.10
2022-10-04T03:55:35.210Z,6.70
2022-10-04T03:58:03.276Z,5.30
2022-10-04T04:00:31.964Z,5.60
2022-10-04T04:03:05.277Z,6.30
2022-10-04T04:05:40.986Z,5.70
2022-10-04T04:08:19.523Z,6.10
2022-10-04T04:10:54.968Z,6.60
2022-10-04T04:13:29.176Z,5.90
2022-10-04T04:16:00.493Z,5.90
2022-10-04T04:18:34.887Z,6.30
2022-10-04T04:21:04.504Z,7.30
2022-10-04T04:23:38.491Z,6.90
2022-10-04T04:26:35.222Z,6.30
2022-10-04T04:29:06.095Z,6.30
2022-10-04T04:31:44.218Z,6.30
2022-10-04T04:34:30.074Z,6.20
2022-10-04T04:37:03.116Z,5.50
2022-10-04T04:39:39.955Z,6.10
2022-10-04T04:42:16.910Z,5.40
2022-10-04T04:44:52.208Z,4.80
2022-10-04T04:47:26.529Z,4.60
2022-10-04T04:49:58.696Z,4.10
2022-10-04T04:52:29.426Z,4.20
2022-10-04T04:54:57.900Z,4.80
2022-10-04T04:57:25.786Z,4.50
2022-10-04T04:59:58.767Z,4.60
2022-10-04T05:02:36.442Z,4.50
2022-10-04T05:05:16.301Z,4.40
2022-10-04T05:07:44.163Z,4.60
2022-10-04T05:10:34.566Z,4.30
2022-10-04T05:13:04.412Z,4.50
2022-10-04T05:15:35.282Z,5.10
2022-10-04T05:18:30.522Z,5.10
2022-10-04T05:21:06.059Z,5.10
2022-10-04T05:23:35.068Z,4.60
2022-10-04T05:26:04.778Z,4.80
2022-10-04T05:28:33.378Z,4.10
2022-10-04T05:31:29.352Z,4.40
2022-10-04T05:34:00.400Z,4.10
2022-10-04T05:36:51.091Z,4.30
2022-10-04T05:39:26.448Z,4.50
2022-10-04T05:42:09.573Z,3.80
2022-10-04T05:44:54.140Z,4.20
2022-10-04T05:47:26.565Z,4.40
2022-10-04T05:50:00.444Z,4.60
2022-10-04T05:52:33.552Z,4.20
2022-10-04T05:55:16.274Z,4.10
2022-10-04T05:58:04.039Z,3.80
2022-10-04T06:00:44.786Z,4.10
2022-10-04T06:03:25.315Z,4.00
2022-10-04T06:06:05.957Z,3.70
2022-10-04T06:08:43.844Z,3.50
2022-10-04T06:11:48.769Z,3.80
2022-10-04T06:14:25.749Z,3.70
2022-10-04T06:16:56.197Z,4.00
2022-10-04T06:19:29.490Z,3.50
2022-10-04T06:22:19.366Z,4.10
2022-10-04T06:25:12.536Z,4.20
2022-10-04T06:28:06.435Z,3.50
2022-10-04T06:30:57.565Z,4.00
2022-10-04T06:33:31.227Z,4.20
2022-10-04T06:36:01.826Z,4.00
2022-10-04T06:39:04.235Z,3.90
2022-10-04T06:42:01.448Z,3.80
2022-10-04T06:44:48.571Z,4.40
2022-10-04T06:47:19.033Z,4.00
2022-10-04T06:50:00.276Z,4.20
2022-10-04T06:52:39.548Z,4.30
2022-10-04T06:55:09.956Z,3.90
2022-10-04T06:58:13.035Z,4.10
2022-10-04T07:01:10.343Z,4.20
2022-10-04T07:04:06.567Z,4.10
2022-10-04T07:06:41.462Z,3.80
2022-10-04T07:09:22.425Z,4.30
2022-10-04T07:12:08.348Z,3.80
2022-10-04T07:17:15.302Z,3.50
2022-10-04T07:19:48.715Z,3.70
2022-10-04T07:22:23.372Z,3.40
2022-10-04T07:24:51.388Z,3.10
2022-10-04T07:27:30.837Z,3.20
2022-10-04T07:30:06.235Z,3.20
2022-10-04T07:35:09.929Z,3.20
2022-10-04T07:37:52.808Z,3.30
2022-10-04T07:40:32.967Z,2.90
2022-10-04T07:43:08.296Z,2.40
2022-10-04T07:45:40.077Z,2.70
2022-10-04T07:48:23.377Z,2.50
2022-10-04T07:50:51.760Z,2.30
2022-10-04T07:53:46.841Z,2.80
2022-10-04T07:56:43.051Z,2.70
2022-10-04T07:59:56.754Z,2.60
2022-10-04T08:02:43.051Z,2.40
2022-10-04T08:05:16.650Z,2.20
2022-10-04T08:07:53.609Z,2.30
2022-10-04T08:10:40.111Z,2.10
2022-10-04T08:13:22.418Z,2.00
2022-10-04T08:15:52.697Z,2.00
2022-10-04T08:18:58.067Z,2.10
2022-10-04T08:21:43.050Z,2.10
2022-10-04T08:24:19.925Z,1.90
2022-10-04T08:27:01.004Z,1.80
2022-10-04T08:29:47.868Z,2.00
2022-10-04T08:32:55.063Z,2.10
2022-10-04T08:35:32.203Z,1.90
2022-10-04T08:38:09.490Z,2.00
2022-10-04T08:41:08.487Z,1.80
2022-10-04T08:44:03.298Z,1.80
2022-10-04T08:47:03.380Z,2.10
2022-10-04T08:49:46.734Z,1.90
2022-10-04T08:52:52.916Z,1.60
2022-10-04T08:56:06.213Z,1.60
2022-10-04T08:58:52.099Z,1.60
2022-10-04T09:04:15.411Z,1.50
2022-10-04T09:07:04.260Z,1.80
2022-10-04T09:09:49.195Z,1.80
2022-10-04T09:12:44.424Z,1.60
2022-10-04T09:15:21.691Z,1.70
2022-10-04T09:18:19.624Z,1.50
2022-10-04T09:21:02.599Z,1.50
2022-10-04T09:24:04.563Z,1.40
2022-10-04T09:26:44.039Z,1.40
2022-10-04T09:29:43.593Z,1.50
2022-10-04T09:32:37.193Z,1.30
2022-10-04T09:35:50.445Z,1.30
2022-10-04T09:38:33.327Z,1.40
2022-10-04T09:41:55.181Z,1.40
2022-10-04T09:44:58.141Z,1.30
2022-10-04T09:47:45.305Z,1.60
2022-10-04T09:50:42.755Z,1.20
2022-10-04T09:53:31.971Z,1.30
2022-10-04T09:56:15.088Z,1.30
2022-10-04T09:58:54.731Z,1.40
2022-10-04T10:01:36.702Z,1.50
2022-10-04T10:04:25.894Z,1.50
2022-10-04T10:07:14.750Z,1.40
2022-10-04T10:10:33.161Z,1.80
2022-10-04T10:13:40.184Z,1.40
2022-10-04T10:16:41.090Z,1.60
2022-10-04T10:19:28.424Z,1.50
2022-10-04T10:22:06.978Z,1.20
2022-10-04T10:25:12.713Z,1.10
2022-10-04T10:27:52.638Z,1.40
2022-10-04T10:30:50.934Z,1.30
2022-10-04T10:34:02.154Z,1.40
2022-10-04T10:37:09.152Z,1.30
2022-10-04T10:39:53.781Z,1.50
2022-10-04T10:42:21.367Z,1.40
2022-10-04T10:45:26.768Z,1.80
2022-10-04T10:48:13.476Z,1.30
2022-10-04T10:51:10.526Z,1.40
2022-10-04T10:53:50.145Z,1.40
2022-10-04T10:56:46.185Z,1.70
2022-10-04T11:01:50.321Z,1.60
2022-10-04T11:04:36.731Z,1.20
2022-10-04T11:07:37.373Z,1.60
2022-10-04T11:10:20.374Z,1.70
2022-10-04T11:13:17.129Z,1.50
2022-10-04T11:16:08.007Z,1.40
2022-10-04T11:18:47.674Z,1.30
2022-10-04T11:21:46.560Z,1.40
2022-10-04T11:25:05.506Z,1.30
2022-10-04T11:28:02.492Z,1.80
2022-10-04T11:31:02.900Z,1.50
2022-10-04T11:33:52.605Z,1.50
2022-10-04T11:36:51.465Z,1.60
2022-10-04T11:39:53.110Z,1.70
2022-10-04T11:42:37.015Z,1.60
2022-10-04T11:45:41.692Z,1.80
2022-10-04T11:48:38.539Z,1.80
2022-10-04T11:51:20.015Z,1.60
2022-10-04T11:54:05.472Z,1.70
2022-10-04T11:56:43.507Z,1.50
2022-10-04T11:59:27.656Z,1.50
2022-10-04T12:02:28.589Z,1.70
2022-10-04T12:05:14.992Z,1.50
2022-10-04T12:08:04.772Z,1.80
2022-10-04T12:10:39.103Z,1.30
2022-10-04T12:13:33.983Z,1.90
2022-10-04T12:16:32.752Z,1.80
2022-10-04T12:19:20.014Z,1.80
2022-10-04T12:21:54.634Z,2.20
2022-10-04T12:24:59.886Z,1.70
2022-10-04T12:27:49.218Z,1.80
2022-10-04T12:30:31.020Z,1.80
2022-10-04T12:33:04.853Z,2.10
2022-10-04T12:35:57.580Z,2.10
2022-10-04T12:39:00.318Z,1.90
2022-10-04T12:42:15.274Z,2.10
2022-10-04T12:45:12.483Z,2.10
2022-10-04T12:47:48.266Z,3.40
2022-10-04T12:50:49.596Z,3.80
2022-10-04T12:53:22.291Z,3.50
2022-10-04T12:55:59.249Z,3.40
2022-10-04T12:58:57.379Z,2.90
2022-10-04T13:01:47.982Z,2.80
2022-10-04T13:04:53.360Z,3.00
2022-10-04T13:07:37.210Z,2.70
2022-10-04T13:10:26.157Z,2.50
2022-10-04T13:13:05.647Z,2.10
2022-10-04T13:19:31.279Z,2.20
2022-10-04T13:22:51.358Z,2.20
2022-10-04T13:25:33.499Z,1.90
2022-10-04T13:28:32.178Z,1.80
2022-10-04T13:31:35.199Z,1.70
2022-10-04T13:34:20.380Z,1.90
2022-10-04T13:37:09.748Z,1.70
2022-10-04T13:39:55.968Z,1.80
2022-10-04T13:43:08.557Z,1.80
2022-10-04T13:46:02.313Z,1.90
2022-10-04T13:48:53.560Z,2.00
2022-10-04T13:51:33.116Z,1.90
2022-10-04T13:54:36.581Z,2.30
2022-10-04T13:57:11.540Z,2.10
2022-10-04T14:00:02.028Z,2.30
2022-10-04T14:02:29.877Z,2.00
2022-10-04T14:05:25.282Z,2.00
2022-10-04T14:08:11.668Z,2.30
2022-10-04T14:10:45.132Z,2.00
2022-10-04T14:13:50.136Z,2.00
2022-10-04T14:16:36.683Z,1.80
2022-10-04T14:19:29.696Z,1.60
2022-10-04T14:22:18.338Z,1.80
2022-10-04T14:24:49.977Z,1.70
2022-10-04T14:27:32.189Z,2.40
2022-10-04T14:30:24.630Z,2.10
2022-10-04T14:33:10.801Z,1.90
2022-10-04T14:35:56.488Z,2.10
2022-10-04T14:38:42.979Z,2.00
2022-10-04T14:41:25.289Z,1.80
2022-10-04T14:44:09.221Z,1.90
2022-10-04T14:47:05.961Z,1.70
2022-10-04T14:50:00.673Z,2.00
2022-10-04T14:53:06.409Z,1.80
2022-10-04T14:56:03.303Z,1.60
2022-10-04T14:58:41.082Z,2.20
2022-10-04T15:01:18.758Z,1.80
2022-10-04T15:04:09.018Z,1.90
2022-10-04T15:06:43.491Z,1.90
2022-10-04T15:09:30.719Z,2.20
2022-10-04T15:13:09.484Z,2.00
2022-10-04T15:15:59.166Z,2.20
2022-10-04T15:18:31.900Z,2.10
2022-10-04T15:21:10.223Z,2.00
2022-10-04T15:23:47.565Z,1.90
2022-10-04T15:26:18.503Z,2.10
2022-10-04T15:29:01.384Z,2.00
2022-10-04T15:31:35.223Z,2.10
2022-10-04T15:34:33.828Z,2.40
2022-10-04T15:37:10.700Z,2.60
2022-10-04T15:39:58.935Z,2.80
2022-10-04T15:42:35.908Z,2.60
2022-10-04T15:45:18.427Z,2.40
2022-10-04T15:48:24.984Z,2.50
2022-10-04T15:51:30.235Z,2.60
2022-10-04T15:54:15.914Z,2.80
2022-10-04T15:56:48.757Z,2.90
2022-10-04T15:59:36.861Z,3.20
2022-10-04T16:02:10.302Z,3.00
2022-10-04T16:04:41.082Z,3.30
2022-10-04T16:07:21.020Z,3.60
2022-10-04T16:09:53.900Z,3.50
2022-10-04T16:12:44.185Z,3.10
2022-10-04T16:15:49.712Z,3.30
2022-10-04T16:18:59.600Z,11.30
2022-10-04T16:22:09.445Z,3.70
2022-10-04T16:24:52.599Z,3.70
2022-10-04T16:27:46.454Z,3.40
2022-10-04T16:30:39.853Z,3.60
2022-10-04T16:33:23.282Z,3.70
2022-10-04T16:36:19.095Z,3.60
2022-10-04T16:39:13.513Z,3.70
2022-10-04T16:41:46.321Z,4.00
2022-10-04T16:44:48.393Z,4.10
2022-10-04T16:47:51.284Z,3.10
2022-10-04T16:50:44.400Z,4.10
2022-10-04T16:53:21.322Z,4.10
2022-10-04T16:56:02.897Z,4.50
2022-10-04T16:58:31.958Z,3.50
2022-10-04T17:01:27.827Z,3.80
2022-10-04T17:04:05.517Z,4.60
2022-10-04T17:06:43.876Z,4.70
2022-10-04T17:09:37.775Z,5.70
2022-10-04T17:12:17.293Z,6.20
2022-10-04T17:15:08.368Z,6.40
2022-10-04T17:17:47.184Z,7.00
2022-10-04T17:20:41.686Z,7.80
2022-10-04T17:23:43.865Z,7.80
2022-10-04T17:26:32.893Z,7.80
2022-10-04T17:29:32.885Z,8.00
2022-10-04T17:32:25.174Z,8.00
2022-10-04T17:35:24.696Z,6.90
2022-10-04T17:38:16.862Z,6.50
2022-10-04T17:41:15.509Z,6.60
2022-10-04T17:43:56.410Z,6.20
2022-10-04T17:46:58.018Z,6.50
2022-10-04T17:50:16.380Z,6.20
2022-10-04T17:53:08.393Z,7.50
2022-10-04T17:55:48.889Z,7.50
2022-10-04T17:58:23.463Z,6.70
2022-10-04T18:01:14.835Z,7.60
2022-10-04T18:03:55.199Z,6.30
2022-10-04T18:06:38.999Z,6.60
2022-10-04T18:09:19.378Z,6.90
2022-10-04T18:11:53.688Z,8.50
2022-10-04T18:14:31.262Z,8.60
2022-10-04T18:17:10.429Z,7.50
2022-10-04T18:19:43.873Z,7.60
2022-10-04T18:22:18.993Z,6.70
2022-10-04T18:25:04.149Z,6.20
2022-10-04T18:27:33.284Z,5.30
2022-10-04T18:30:02.183Z,6.00
2022-10-04T18:32:32.466Z,6.20
2022-10-04T18:35:19.321Z,5.80
2022-10-04T18:37:47.604Z,6.70
2022-10-04T18:40:34.096Z,6.20
2022-10-04T18:43:01.919Z,5.90
2022-10-04T18:45:31.975Z,6.60
2022-10-04T18:48:02.881Z,6.80
2022-10-04T18:50:32.831Z,6.60
2022-10-04T18:53:28.460Z,6.70
2022-10-04T18:56:22.934Z,5.90
2022-10-04T18:59:15.799Z,6.70
2022-10-04T19:02:03.137Z,6.30
2022-10-04T19:04:48.625Z,7.60
2022-10-04T19:07:22.086Z,7.50
2022-10-04T19:10:16.181Z,7.90
2022-10-04T19:12:53.453Z,8.00
2022-10-04T19:15:45.868Z,8.20
2022-10-04T19:18:31.437Z,7.80
2022-10-04T19:21:12.210Z,8.70
2022-10-04T19:24:02.055Z,9.00
2022-10-04T19:26:58.563Z,8.70
2022-10-04T19:29:52.194Z,9.10
2022-10-04T19:32:40.710Z,8.20
2022-10-04T19:35:35.178Z,7.90
2022-10-04T19:38:15.303Z,7.70
2022-10-04T19:40:45.342Z,7.30
2022-10-04T19:43:23.364Z,7.70
2022-10-04T19:46:06.810Z,9.10
2022-10-04T19:49:01.900Z,9.20
2022-10-04T19:51:51.501Z,9.00
2022-10-04T19:54:32.239Z,9.20
2022-10-04T19:57:04.214Z,8.70
2022-10-04T19:59:41.334Z,9.10
2022-10-04T20:02:10.797Z,9.20
2022-10-04T20:04:39.522Z,8.80
2022-10-04T20:07:25.414Z,9.80
2022-10-04T20:09:54.983Z,10.50
2022-10-04T20:12:45.078Z,9.20
2022-10-04T20:15:46.574Z,8.50
2022-10-04T20:18:33.372Z,8.30
2022-10-04T20:23:38.303Z,8.30
2022-10-04T20:26:10.958Z,8.70
2022-10-04T20:28:42.065Z,8.40
2022-10-04T20:31:29.914Z,8.10
2022-10-04T20:34:33.119Z,8.60
2022-10-04T20:37:02.161Z,7.30
2022-10-04T20:39:42.052Z,9.30
2022-10-04T20:42:20.565Z,7.90
2022-10-04T20:44:55.534Z,8.50
2022-10-04T20:47:46.553Z,8.80
2022-10-04T20:50:39.043Z,8.30
2022-10-04T20:53:29.696Z,7.80
2022-10-04T20:56:26.752Z,7.80
2022-10-04T20:58:56.980Z,8.30
2022-10-04T21:01:36.137Z,8.70
2022-10-04T21:04:18.918Z,8.60
2022-10-04T21:06:54.274Z,7.70
2022-10-04T21:09:22.750Z,8.70
2022-10-04T21:11:52.668Z,7.00
2022-10-04T21:14:28.094Z,8.50
2022-10-04T21:17:02.868Z,8.10
2022-10-04T21:19:34.068Z,8.10
2022-10-04T21:22:04.392Z,9.10
2022-10-04T21:24:43.741Z,10.00
2022-10-04T21:27:25.006Z,9.10
2022-10-04T21:29:55.431Z,8.60
2022-10-04T21:32:24.783Z,9.20
2022-10-04T21:34:54.379Z,9.30
2022-10-04T21:37:22.708Z,9.50
2022-10-04T21:39:50.343Z,10.20
2022-10-04T21:42:18.542Z,9.60
2022-10-04T21:44:46.188Z,8.90
2022-10-04T21:47:14.067Z,9.20
2022-10-04T21:49:41.803Z,10.60
2022-10-04T21:52:09.604Z,9.60
2022-10-04T21:54:37.355Z,10.10
2022-10-04T21:57:05.015Z,10.60
2022-10-04T21:59:32.706Z,10.10
2022-10-04T22:02:00.382Z,9.90
2022-10-04T22:04:28.138Z,9.50
2022-10-04T22:06:55.862Z,8.70
2022-10-04T22:09:23.623Z,9.50
2022-10-04T22:11:51.288Z,10.10
2022-10-04T22:14:18.970Z,9.90
2022-10-04T22:16:46.903Z,9.20
2022-10-04T22:19:14.809Z,9.30
2022-10-04T22:21:42.394Z,10.50
2022-10-04T22:24:17.377Z,9.60
2022-10-04T22:26:45.947Z,9.30
2022-10-04T22:29:16.189Z,9.80
2022-10-04T22:31:50.346Z,9.20
2022-10-04T22:34:20.756Z,10.10
2022-10-04T22:36:49.947Z,9.90
2022-10-04T22:39:20.248Z,11.90
2022-10-04T22:41:53.834Z,10.60
2022-10-04T22:44:35.625Z,11.10
2022-10-04T22:47:06.883Z,11.90
2022-10-04T22:49:37.510Z,11.00
2022-10-04T22:52:20.815Z,10.40
2022-10-04T22:54:51.520Z,10.80
2022-10-04T22:57:20.381Z,10.30
2022-10-04T22:59:50.674Z,10.80
2022-10-04T23:02:24.295Z,10.90
2022-10-04T23:04:55.286Z,10.60
2022-10-04T23:07:23.282Z,10.80
2022-10-04T23:09:50.936Z,9.30
2022-10-04T23:12:18.631Z,11.30
2022-10-04T23:14:46.363Z,10.60
2022-10-04T23:17:28.862Z,10.70
2022-10-04T23:19:59.259Z,10.70
2022-10-04T23:22:29.155Z,11.60
2022-10-04T23:24:57.724Z,11.00
2022-10-04T23:27:25.460Z,10.60
2022-10-04T23:30:01.831Z,11.10
2022-10-04T23:32:31.651Z,10.40
2022-10-04T23:35:01.865Z,10.20
2022-10-04T23:37:32.539Z,10.40
2022-10-04T23:40:00.173Z,9.70
2022-10-04T23:42:32.361Z,10.30
2022-10-04T23:45:01.536Z,9.50
2022-10-04T23:47:34.664Z,10.40
2022-10-04T23:50:16.913Z,10.20
2022-10-04T23:52:45.455Z,9.40
2022-10-04T23:55:22.476Z,9.20
2022-10-04T23:57:50.555Z,9.60
